Time;durP1;ratioP1;P1;durP2;ratioP2;P2;SDS_P1;SDS_P2;PMS_P1;PMS_P2;Temp;Humidity;BMP_temperature;BMP_pressure;BME280_temperature;BME280_humidity;BME280_pressure;Samples;Min_cycle;Max_cycle;Signal;HPM_P1;HPM_P2
2021/11/13 00:01:01;;;;;;;18.02;11.40;;;;;;;6.77;61.82;101362.52;1760819;79;21078;-65
2021/11/13 00:03:28;;;;;;;21.45;12.28;;;;;;;6.72;61.90;101363.66;1758987;79;21338;-66
2021/11/13 00:05:54;;;;;;;19.27;11.45;;;;;;;6.67;62.01;101369.98;1759932;79;21008;-66
2021/11/13 00:08:22;;;;;;;18.25;11.63;;;;;;;6.66;61.97;101365.66;1756760;79;21336;-66
2021/11/13 00:10:50;;;;;;;23.57;11.15;;;;;;;6.74;61.82;101364.43;1756901;79;21084;-66
2021/11/13 00:13:20;;;;;;;19.92;10.98;;;;;;;6.79;61.74;101359.38;1737016;79;21195;-64
2021/11/13 00:15:47;;;;;;;21.23;12.55;;;;;;;6.83;61.62;101361.39;1760840;79;21105;-64
2021/11/13 00:18:15;;;;;;;21.87;11.78;;;;;;;6.83;61.68;101359.61;1761686;79;21027;-66
2021/11/13 00:20:42;;;;;;;20.35;12.40;;;;;;;6.79;61.57;101364.62;1762202;79;21117;-66
2021/11/13 00:23:09;;;;;;;21.48;12.98;;;;;;;6.72;61.61;101363.20;1762062;79;21568;-66
2021/11/13 00:25:35;;;;;;;23.60;12.88;;;;;;;6.65;61.73;101364.42;1800461;77;23253;-68
2021/11/13 00:28:03;;;;;;;20.32;11.57;;;;;;;6.57;61.87;101362.63;1793421;77;21078;-65
2021/11/13 00:30:30;;;;;;;19.52;12.35;;;;;;;6.46;62.07;101361.38;1796530;77;21149;-67
2021/11/13 00:32:56;;;;;;;22.98;12.07;;;;;;;6.37;62.20;101360.52;1798046;77;21500;-65
2021/11/13 00:35:22;;;;;;;22.20;12.40;;;;;;;6.29;62.36;101358.24;1791765;79;21038;-67
2021/11/13 00:37:49;;;;;;;20.75;12.68;;;;;;;6.25;62.53;101353.22;1789848;78;22446;-65
2021/11/13 00:40:17;;;;;;;20.05;12.78;;;;;;;6.18;62.77;101355.27;1793976;77;21274;-65
2021/11/13 00:42:44;;;;;;;23.27;12.82;;;;;;;6.09;63.11;101355.70;1794280;77;21520;-65
2021/11/13 00:45:11;;;;;;;16.82;11.53;;;;;;;6.05;63.05;101359.36;1766659;77;21055;-66
2021/11/13 00:47:39;;;;;;;22.52;11.95;;;;;;;5.96;62.71;101359.33;1795538;78;21160;-64
2021/11/13 00:50:07;;;;;;;24.18;12.85;;;;;;;5.89;62.85;101362.64;1800579;77;21800;-66
2021/11/13 00:52:37;;;;;;;18.70;11.63;;;;;;;5.90;63.14;101373.48;1795104;79;21334;-63
2021/11/13 00:55:05;;;;;;;17.45;10.98;;;;;;;5.97;62.76;101371.92;1793089;79;21101;-67
2021/11/13 00:57:31;;;;;;;18.25;10.58;;;;;;;6.01;62.51;101376.95;1761723;77;21078;-64
2021/11/13 00:59:58;;;;;;;19.98;11.22;;;;;;;6.03;62.45;101378.19;1791305;77;20996;-64
2021/11/13 01:02:24;;;;;;;20.80;11.15;;;;;;;6.01;62.28;101381.33;1780598;78;21821;-64
2021/11/13 01:04:50;;;;;;;21.15;12.15;;;;;;;5.99;62.29;101375.34;1764403;79;21062;-65
2021/11/13 01:07:18;;;;;;;22.22;11.63;;;;;;;5.98;62.66;101383.61;1789187;78;21079;-65
2021/11/13 01:09:45;;;;;;;24.77;12.93;;;;;;;5.98;62.74;101383.61;1797303;78;20996;-65
2021/11/13 01:12:11;;;;;;;21.35;11.55;;;;;;;5.97;62.56;101385.85;1791936;78;21302;-65
2021/11/13 01:14:41;;;;;;;20.40;12.18;;;;;;;5.93;62.60;101379.02;1792488;77;21079;-66
2021/11/13 01:17:11;;;;;;;19.82;11.33;;;;;;;5.91;62.53;101379.08;1794286;77;21054;-66
2021/11/13 01:19:42;;;;;;;24.95;11.50;;;;;;;5.85;62.15;101373.28;1797801;77;21501;-65
2021/11/13 01:22:08;;;;;;;18.65;10.78;;;;;;;5.78;62.23;101375.31;1763609;79;21573;-65
2021/11/13 01:24:35;;;;;;;17.87;10.80;;;;;;;5.72;62.17;101373.83;1784117;78;21158;-65
2021/11/13 01:27:04;;;;;;;19.50;11.22;;;;;;;5.62;62.06;101368.63;1787025;79;21053;-67
2021/11/13 01:29:31;;;;;;;21.50;12.90;;;;;;;5.52;62.46;101367.33;1782530;79;21011;-65
2021/11/13 01:31:59;;;;;;;17.30;11.00;;;;;;;5.47;63.27;101367.98;1780859;79;21138;-64
2021/11/13 01:34:26;;;;;;;17.95;10.55;;;;;;;5.47;63.11;101362.30;1785003;78;21698;-65
2021/11/13 01:36:52;;;;;;;16.95;10.03;;;;;;;5.56;62.82;101370.19;1780091;78;21052;-65
2021/11/13 01:39:19;;;;;;;18.62;10.38;;;;;;;5.60;62.73;101367.85;1783693;78;21683;-66
2021/11/13 01:41:48;;;;;;;19.50;11.78;;;;;;;5.63;62.54;101369.47;1775924;79;21526;-65
2021/11/13 01:44:16;;;;;;;18.10;10.10;;;;;;;5.61;62.82;101373.45;1782066;79;22078;-65
2021/11/13 01:46:42;;;;;;;15.80;9.70;;;;;;;5.61;63.25;101373.91;1783237;78;21059;-65
2021/11/13 01:49:09;;;;;;;19.32;10.85;;;;;;;5.57;63.63;101366.67;1773606;79;21047;-65
2021/11/13 01:51:37;;;;;;;17.73;11.57;;;;;;;5.56;63.88;101371.49;1764472;79;21316;-66
2021/11/13 01:54:06;;;;;;;17.73;9.70;;;;;;;5.55;64.16;101365.44;1786364;78;21019;-68
2021/11/13 01:56:35;;;;;;;25.82;10.78;;;;;;;5.56;64.17;101368.88;1784574;78;21039;-65
2021/11/13 01:59:03;;;;;;;20.57;10.78;;;;;;;5.53;64.25;101369.01;1782593;78;21595;-67
2021/11/13 02:01:30;;;;;;;17.17;11.18;;;;;;;5.48;64.04;101364.44;1794443;78;21653;-69
2021/11/13 02:03:57;;;;;;;18.87;11.40;;;;;;;5.44;63.73;101364.20;1760815;79;22020;-66
2021/11/13 02:06:26;;;;;;;18.20;10.78;;;;;;;5.39;63.31;101369.61;1768277;79;21409;-67
2021/11/13 02:08:53;;;;;;;20.65;11.53;;;;;;;5.32;63.10;101371.63;1783285;79;21044;-65
2021/11/13 02:11:22;;;;;;;18.95;10.70;;;;;;;5.26;63.57;101375.83;1783337;78;21095;-65
2021/11/13 02:13:50;;;;;;;15.93;10.35;;;;;;;5.25;64.09;101385.86;1773509;79;20992;-65
2021/11/13 02:16:18;;;;;;;17.07;10.78;;;;;;;5.34;63.95;101386.76;1785471;79;21216;-65
2021/11/13 02:18:44;;;;;;;19.48;9.05;;;;;;;5.40;63.32;101385.20;1786764;79;21086;-65
2021/11/13 02:21:11;;;;;;;17.27;9.68;;;;;;;5.42;62.92;101389.53;1789190;79;21083;-65
2021/11/13 02:23:39;;;;;;;16.80;9.93;;;;;;;5.36;62.59;101394.09;1789642;78;21038;-67
2021/11/13 02:26:05;;;;;;;17.67;10.28;;;;;;;5.29;62.33;101395.23;1792127;79;21043;-66
2021/11/13 02:28:36;;;;;;;19.55;10.90;;;;;;;5.23;62.07;101392.03;1759712;79;21879;-64
2021/11/13 02:31:06;;;;;;;17.73;10.98;;;;;;;5.11;61.86;101398.17;1800834;79;21042;-64
2021/11/13 02:33:34;;;;;;;20.25;10.43;;;;;;;5.01;61.83;101407.29;1796602;78;21536;-65
2021/11/13 02:36:00;;;;;;;18.55;10.13;;;;;;;4.91;61.76;101402.89;1781036;79;21008;-66
2021/11/13 02:38:33;;;;;;;23.60;10.43;;;;;;;4.83;61.73;101403.65;1787793;79;21038;-64
2021/11/13 02:41:02;;;;;;;17.10;9.88;;;;;;;4.72;61.88;101404.05;1797618;78;22394;-63
2021/11/13 02:43:30;;;;;;;17.27;10.20;;;;;;;4.65;61.93;101413.03;1793357;79;21959;-63
2021/11/13 02:45:59;;;;;;;19.73;10.70;;;;;;;4.54;62.14;101409.55;1794448;78;21606;-63
2021/11/13 02:48:27;;;;;;;21.00;10.65;;;;;;;4.47;62.17;101401.55;1796381;78;21079;-63
2021/11/13 02:50:54;;;;;;;24.98;12.37;;;;;;;4.38;62.37;101406.66;1790989;78;21528;-63
2021/11/13 02:53:23;;;;;;;19.02;10.98;;;;;;;4.31;62.60;101413.02;1790752;79;21143;-63
2021/11/13 02:55:53;;;;;;;19.75;10.60;;;;;;;4.25;62.67;101409.33;1768686;79;21051;-64
2021/11/13 02:58:21;;;;;;;22.05;10.20;;;;;;;4.17;62.81;101416.14;1790746;78;21062;-64
2021/11/13 03:00:50;;;;;;;25.72;12.65;;;;;;;4.09;62.87;101416.87;1793161;79;20963;-63
2021/11/13 03:03:19;;;;;;;18.37;9.85;;;;;;;4.09;63.03;101411.66;1791615;79;20980;-64
2021/11/13 03:05:52;;;;;;;17.42;10.25;;;;;;;4.17;62.82;101407.02;1792676;79;21456;-63
2021/11/13 03:08:32;;;;;;;17.80;10.80;;;;;;;4.20;62.72;101403.01;1790010;79;21043;-65
2021/11/13 03:11:05;;;;;;;19.15;11.60;;;;;;;4.22;62.85;101401.19;1786105;78;21016;-63
2021/11/13 03:13:33;;;;;;;17.85;11.40;;;;;;;4.22;62.85;101402.92;1792632;79;21078;-64
2021/11/13 03:16:01;;;;;;;28.23;15.53;;;;;;;4.21;63.10;101409.06;1768518;79;21058;-64
2021/11/13 03:18:28;;;;;;;50.17;23.18;;;;;;;4.19;63.34;101405.67;1763913;79;21521;-66
2021/11/13 03:20:54;;;;;;;32.42;14.35;;;;;;;4.15;63.67;101406.20;1789668;78;21506;-65
2021/11/13 03:23:21;;;;;;;28.67;12.60;;;;;;;4.07;63.93;101413.48;1793217;78;21066;-64
2021/11/13 03:26:10;;;;;;;23.52;11.85;;;;;;;3.98;64.00;101422.45;1786171;78;21050;-64
2021/11/13 03:28:42;;;;;;;39.92;16.70;;;;;;;3.88;64.00;101421.95;1778560;79;21058;-64
2021/11/13 03:31:08;;;;;;;43.50;20.88;;;;;;;3.79;64.02;101426.17;1783255;78;21904;-66
2021/11/13 03:46:39;;;;;;;50.40;24.60;;;;;;;5.19;61.14;101427.85;1876180;74;21954;-63
2021/11/13 03:49:05;;;;;;;47.38;23.92;;;;;;;5.26;60.53;101438.88;1845745;75;21609;-63
2021/11/13 03:51:32;;;;;;;57.00;27.00;;;;;;;5.16;60.69;101440.58;1844258;75;21191;-62
2021/11/13 03:53:58;;;;;;;42.93;22.20;;;;;;;5.05;60.86;101439.31;1852816;75;21100;-63
2021/11/13 03:56:26;;;;;;;37.55;19.73;;;;;;;4.93;61.14;101434.97;1843405;75;21061;-63
2021/11/13 03:58:52;;;;;;;37.93;20.82;;;;;;;4.82;60.96;101429.32;1848767;75;21482;-63
2021/11/13 04:01:19;;;;;;;34.63;19.52;;;;;;;4.72;60.86;101436.65;1813897;75;21066;-63
2021/11/13 04:03:46;;;;;;;41.08;20.50;;;;;;;4.62;60.94;101430.09;1847752;75;21087;-63
2021/11/13 04:06:12;;;;;;;31.85;17.92;;;;;;;4.51;61.37;101424.46;1853226;75;20927;-63
2021/11/13 04:08:40;;;;;;;28.50;14.13;;;;;;;4.39;61.67;101434.89;1846343;75;21029;-63
2021/11/13 04:11:08;;;;;;;22.15;13.48;;;;;;;4.26;62.10;101432.72;1850848;75;21512;-62
2021/11/13 04:13:35;;;;;;;27.50;13.70;;;;;;;4.12;62.73;101432.39;1854448;75;21045;-62
2021/11/13 04:16:02;;;;;;;18.12;11.35;;;;;;;3.99;63.02;101442.86;1855577;75;23001;-61
2021/11/13 04:18:32;;;;;;;19.25;11.35;;;;;;;3.84;63.46;101434.66;1833126;75;21078;-62
2021/11/13 04:20:58;;;;;;;25.52;13.22;;;;;;;3.72;63.89;101432.04;1854822;76;21632;-61
2021/11/13 04:23:26;;;;;;;27.30;13.75;;;;;;;3.62;63.94;101428.05;1858357;75;21069;-61
2021/11/13 04:25:53;;;;;;;24.35;13.70;;;;;;;3.56;63.72;101430.02;1856065;75;21036;-62
2021/11/13 04:28:19;;;;;;;25.05;13.20;;;;;;;3.49;63.56;101428.07;1850308;75;21184;-61
2021/11/13 04:30:46;;;;;;;25.00;11.88;;;;;;;3.42;63.48;101430.49;1848920;75;21073;-60
2021/11/13 04:33:12;;;;;;;25.50;11.38;;;;;;;3.40;63.42;101434.44;1852732;75;21765;-62
2021/11/13 04:35:59;;;;;;;21.73;12.00;;;;;;;3.45;63.28;101433.83;1852436;75;21529;-62
2021/11/13 04:38:12;;;;;;;20.75;12.05;;;;;;;3.52;63.20;101444.89;1845806;75;21053;-62
2021/11/13 04:40:39;;;;;;;19.65;11.28;;;;;;;3.59;63.20;101449.44;1806965;76;22134;-62
2021/11/13 04:43:05;;;;;;;23.80;12.55;;;;;;;3.61;63.13;101444.56;1854831;75;21097;-62
2021/11/13 04:45:32;;;;;;;20.35;12.15;;;;;;;3.64;63.17;101448.37;1820160;76;21524;-61
2021/11/13 04:47:59;;;;;;;18.80;11.53;;;;;;;3.67;63.13;101455.23;1857342;75;20969;-64
2021/11/13 04:50:26;;;;;;;24.32;12.88;;;;;;;3.71;63.46;101450.31;1857632;75;21548;-61
2021/11/13 04:52:53;;;;;;;20.55;13.15;;;;;;;3.79;63.68;101454.80;1791259;78;21789;-60
2021/11/13 04:55:19;;;;;;;24.00;14.73;;;;;;;3.85;63.82;101454.60;1821047;77;21052;-61
2021/11/13 04:57:48;;;;;;;37.63;21.95;;;;;;;3.90;63.77;101460.50;1795976;78;21062;-62
2021/11/13 05:00:21;;;;;;;26.62;14.95;;;;;;;3.96;63.89;101467.23;1792772;78;21553;-64
2021/11/13 05:02:48;;;;;;;26.57;15.58;;;;;;;3.96;64.06;101467.23;1756298;79;21763;-62
2021/11/13 05:05:14;;;;;;;33.85;15.72;;;;;;;3.99;64.24;101470.20;1815126;77;21130;-64
2021/11/13 05:07:41;;;;;;;29.48;15.55;;;;;;;3.99;64.56;101479.31;1812238;77;21505;-61
2021/11/13 05:10:09;;;;;;;24.18;14.35;;;;;;;4.02;64.81;101477.91;1750732;78;21092;-62
2021/11/13 05:12:37;;;;;;;27.37;14.70;;;;;;;4.13;64.75;101471.84;1760186;80;21553;-62
2021/11/13 05:15:05;;;;;;;24.55;13.78;;;;;;;4.23;64.71;101478.42;1750843;80;21050;-62
2021/11/13 05:17:35;;;;;;;26.87;14.93;;;;;;;4.34;64.92;101489.78;1821559;77;22144;-62
2021/11/13 05:20:07;;;;;;;31.82;15.40;;;;;;;4.38;64.94;101492.66;1786126;78;21643;-62
2021/11/13 05:22:37;;;;;;;26.42;14.93;;;;;;;4.41;64.96;101490.41;1812886;78;21751;-63
2021/11/13 05:25:05;;;;;;;19.17;12.33;;;;;;;4.44;64.83;101494.20;1817846;77;21089;-63
2021/11/13 05:27:32;;;;;;;24.02;14.03;;;;;;;4.43;64.74;101497.70;1781207;78;21057;-63
2021/11/13 05:29:59;;;;;;;23.50;14.60;;;;;;;4.39;64.68;101491.77;1813819;77;21134;-62
2021/11/13 05:32:25;;;;;;;28.57;14.68;;;;;;;4.38;64.89;101505.69;1758369;80;21706;-63
2021/11/13 05:34:52;;;;;;;27.50;14.78;;;;;;;4.37;64.92;101510.95;1819481;77;21085;-64
2021/11/13 05:37:18;;;;;;;24.12;15.15;;;;;;;4.35;64.84;101507.09;1779552;77;21133;-62
2021/11/13 05:39:45;;;;;;;24.87;16.50;;;;;;;4.31;65.02;101512.50;1787450;78;21041;-62
2021/11/13 05:42:11;;;;;;;24.72;12.18;;;;;;;4.27;65.34;101517.81;1812221;77;21365;-63
2021/11/13 05:44:38;;;;;;;21.40;12.98;;;;;;;4.24;65.61;101528.80;1781358;78;20995;-62
2021/11/13 05:47:04;;;;;;;20.92;12.50;;;;;;;4.27;65.65;101525.63;1809924;78;21101;-62
2021/11/13 05:49:32;;;;;;;30.55;13.55;;;;;;;4.39;65.38;101523.03;1813156;77;21074;-62
2021/11/13 05:51:59;;;;;;;20.17;12.88;;;;;;;4.50;65.45;101522.64;1811831;77;21093;-61
2021/11/13 05:54:26;;;;;;;21.45;11.73;;;;;;;4.62;65.58;101533.94;1813451;77;21132;-61
2021/11/13 05:56:52;;;;;;;25.30;11.70;;;;;;;4.71;65.46;101538.39;1813804;77;21045;-62
2021/11/13 05:59:18;;;;;;;21.68;11.30;;;;;;;4.74;65.54;101530.45;1811154;77;21030;-62
2021/11/13 06:01:45;;;;;;;21.60;11.88;;;;;;;4.80;65.61;101532.38;1809610;77;21077;-62
2021/11/13 06:04:12;;;;;;;26.77;12.43;;;;;;;4.82;65.71;101533.63;1811200;77;21042;-63
2021/11/13 06:06:39;;;;;;;19.25;11.70;;;;;;;4.85;65.72;101538.73;1809447;77;21203;-61
2021/11/13 06:09:05;;;;;;;31.62;13.65;;;;;;;4.88;65.81;101541.23;1783998;78;21100;-63
2021/11/13 06:11:32;;;;;;;26.27;12.98;;;;;;;4.94;65.94;101548.84;1815688;78;21116;-62
2021/11/13 06:13:59;;;;;;;21.85;11.93;;;;;;;4.97;66.07;101550.00;1793970;78;21058;-61
2021/11/13 06:16:26;;;;;;;23.77;13.15;;;;;;;5.00;66.05;101551.66;1789851;78;22535;-62
2021/11/13 06:18:52;;;;;;;25.08;14.45;;;;;;;5.01;66.27;101552.06;1795549;78;21205;-62
2021/11/13 06:21:20;;;;;;;22.40;12.23;;;;;;;5.05;66.46;101547.58;1792768;78;21097;-62
2021/11/13 06:23:47;;;;;;;20.68;12.80;;;;;;;5.17;66.40;101553.62;1800131;78;21073;-63
2021/11/13 06:26:14;;;;;;;23.32;16.25;;;;;;;5.27;66.31;101556.27;1756359;80;21121;-63
2021/11/13 06:28:40;;;;;;;26.07;15.05;;;;;;;5.39;66.49;101556.23;1777201;78;21082;-63
2021/11/13 06:31:08;;;;;;;23.95;14.47;;;;;;;5.51;66.60;101558.81;1777717;78;21046;-64
2021/11/13 06:33:37;;;;;;;27.45;15.18;;;;;;;5.58;66.70;101557.64;1750649;79;21168;-63
2021/11/13 06:36:05;;;;;;;22.52;14.07;;;;;;;5.69;66.71;101567.67;1782860;78;21074;-64
2021/11/13 06:38:32;;;;;;;26.90;15.68;;;;;;;5.81;66.63;101571.55;1783733;78;21073;-63
2021/11/13 06:41:00;;;;;;;21.60;14.15;;;;;;;5.90;66.39;101569.84;1758455;80;21170;-63
2021/11/13 06:43:27;;;;;;;23.67;13.38;;;;;;;5.98;66.21;101569.11;1804478;77;21143;-63
2021/11/13 06:45:54;;;;;;;26.17;14.80;;;;;;;6.02;66.03;101572.00;1819996;77;21085;-63
2021/11/13 06:48:20;;;;;;;23.45;13.32;;;;;;;6.04;65.93;101568.02;1791301;78;21513;-63
2021/11/13 06:50:47;;;;;;;23.20;14.45;;;;;;;6.06;65.67;101570.10;1781554;78;21053;-63
2021/11/13 06:53:14;;;;;;;21.10;12.78;;;;;;;6.10;65.59;101571.22;1786600;78;21106;-63
2021/11/13 06:55:41;;;;;;;21.30;12.78;;;;;;;6.22;65.31;101575.08;1747504;78;21599;-62
2021/11/13 06:58:08;;;;;;;22.25;13.00;;;;;;;6.29;65.16;101576.98;1764929;78;21517;-62
2021/11/13 07:00:34;;;;;;;20.77;13.10;;;;;;;6.37;65.00;101577.93;1790555;78;21124;-61
2021/11/13 07:03:02;;;;;;;23.62;12.85;;;;;;;6.42;65.16;101578.58;1787409;79;21097;-61
2021/11/13 07:05:29;;;;;;;20.37;13.10;;;;;;;6.48;65.33;101583.08;1780354;78;21093;-62
2021/11/13 07:07:56;;;;;;;23.80;14.93;;;;;;;6.57;65.07;101590.14;1787867;78;21130;-64
2021/11/13 07:10:27;;;;;;;24.40;13.90;;;;;;;6.61;64.83;101585.19;1783240;78;21056;-63
2021/11/13 07:12:56;;;;;;;23.47;12.90;;;;;;;6.62;64.48;101583.81;1785448;78;21054;-63
2021/11/13 07:15:24;;;;;;;23.90;13.50;;;;;;;6.59;64.48;101585.69;1807742;77;21078;-63
2021/11/13 07:17:51;;;;;;;25.25;14.58;;;;;;;6.57;64.49;101584.44;1784208;78;21157;-63
2021/11/13 07:20:17;;;;;;;20.80;12.65;;;;;;;6.57;64.48;101580.52;1786474;78;21082;-61
2021/11/13 07:22:46;;;;;;;23.92;14.87;;;;;;;6.56;64.40;101584.07;1803041;77;21062;-62
2021/11/13 07:25:14;;;;;;;24.02;13.93;;;;;;;6.58;64.54;101588.77;1785913;78;21132;-63
2021/11/13 07:27:42;;;;;;;21.62;14.03;;;;;;;6.69;64.43;101588.28;1787203;78;21556;-62
2021/11/13 07:30:12;;;;;;;24.10;13.88;;;;;;;6.77;64.38;101591.41;1756008;79;21061;-62
2021/11/13 07:32:39;;;;;;;27.20;15.70;;;;;;;6.84;64.45;101594.16;1787356;79;21131;-63
2021/11/13 07:35:07;;;;;;;25.37;14.13;;;;;;;6.93;64.38;101594.66;1787217;78;21054;-62
2021/11/13 07:37:34;;;;;;;21.00;13.48;;;;;;;6.97;64.17;101596.21;1789800;78;21080;-63
2021/11/13 07:40:01;;;;;;;21.48;14.25;;;;;;;7.00;64.05;101602.63;1781929;78;21556;-60
2021/11/13 07:42:30;;;;;;;21.60;13.40;;;;;;;7.01;63.97;101595.14;1814617;77;21058;-61
2021/11/13 07:44:59;;;;;;;21.93;14.15;;;;;;;7.00;63.89;101598.23;1788455;78;21227;-61
2021/11/13 07:47:28;;;;;;;23.15;14.10;;;;;;;7.00;63.89;101598.69;1796811;78;21099;-60
2021/11/13 07:49:57;;;;;;;27.70;14.93;;;;;;;6.97;63.89;101598.36;1808228;78;21091;-61
2021/11/13 07:52:24;;;;;;;23.57;13.25;;;;;;;7.03;63.72;101598.56;1808809;77;21544;-60
2021/11/13 07:54:51;;;;;;;23.95;14.07;;;;;;;7.09;63.49;101589.09;1800188;77;21128;-60
2021/11/13 07:57:18;;;;;;;19.27;13.15;;;;;;;7.14;63.63;101593.66;1811232;77;21282;-60
2021/11/13 07:59:44;;;;;;;23.62;13.05;;;;;;;7.23;63.65;101594.55;1807735;77;21046;-61
2021/11/13 08:02:10;;;;;;;25.00;14.10;;;;;;;7.28;63.77;101588.23;1780314;78;21066;-61
2021/11/13 08:04:37;;;;;;;20.77;12.58;;;;;;;7.36;63.65;101597.89;1805737;78;21055;-61
2021/11/13 08:07:08;;;;;;;20.77;13.43;;;;;;;7.44;63.53;101591.84;1809740;77;21061;-60
2021/11/13 08:09:35;;;;;;;21.33;13.85;;;;;;;7.52;63.30;101596.73;1799023;78;21055;-58
2021/11/13 08:12:01;;;;;;;22.77;13.70;;;;;;;7.55;63.10;101594.80;1761900;79;21137;-58
2021/11/13 08:14:29;;;;;;;20.90;13.45;;;;;;;7.61;62.86;101602.34;1790011;78;21042;-59
2021/11/13 08:16:57;;;;;;;26.87;13.85;;;;;;;7.61;62.74;101598.89;1798802;78;21371;-59
2021/11/13 08:19:24;;;;;;;22.87;14.05;;;;;;;7.65;62.70;101596.97;1789203;78;21136;-60
2021/11/13 08:21:50;;;;;;;25.32;13.75;;;;;;;7.67;62.58;101595.14;1791486;78;21057;-60
2021/11/13 08:24:19;;;;;;;23.15;12.70;;;;;;;7.69;62.41;101600.67;1761391;78;21615;-60
2021/11/13 08:26:47;;;;;;;21.12;13.00;;;;;;;7.75;62.31;101604.77;1790019;78;22074;-60
2021/11/13 08:29:14;;;;;;;22.22;13.18;;;;;;;7.87;62.20;101609.42;1789050;78;21580;-60
2021/11/13 08:31:41;;;;;;;19.62;12.28;;;;;;;7.98;62.19;101611.06;1793651;78;21060;-60
2021/11/13 08:34:08;;;;;;;19.82;13.53;;;;;;;8.09;62.21;101621.47;1793282;78;22725;-60
2021/11/13 08:36:34;;;;;;;20.23;12.58;;;;;;;8.13;62.09;101609.89;1791455;78;22527;-60
2021/11/13 08:39:04;;;;;;;22.65;12.90;;;;;;;8.17;61.89;101617.53;1759130;78;21533;-59
2021/11/13 08:41:32;;;;;;;22.82;13.05;;;;;;;8.24;61.69;101619.39;1781269;78;21112;-60
2021/11/13 08:43:58;;;;;;;22.62;15.25;;;;;;;8.27;61.46;101617.92;1749949;78;21378;-60
2021/11/13 08:46:25;;;;;;;24.00;13.78;;;;;;;8.29;61.33;101619.16;1771860;78;21898;-59
2021/11/13 08:48:52;;;;;;;23.60;15.08;;;;;;;8.28;61.28;101615.67;1810143;78;21030;-59
2021/11/13 08:51:18;;;;;;;23.70;13.65;;;;;;;8.27;61.23;101617.92;1804559;77;21402;-59
2021/11/13 08:53:53;;;;;;;23.52;13.43;;;;;;;8.22;61.29;101609.45;1753486;78;21070;-59
2021/11/13 08:56:13;;;;;;;23.80;14.18;;;;;;;8.18;61.34;101611.34;1806124;78;21042;-59
2021/11/13 08:58:40;;;;;;;24.45;12.23;;;;;;;8.15;61.56;101605.41;1750405;80;21218;-60
2021/11/13 09:01:07;;;;;;;20.57;12.55;;;;;;;8.22;61.66;101598.96;1780749;77;21053;-59
2021/11/13 09:03:37;;;;;;;20.80;12.37;;;;;;;8.35;61.41;101597.41;1807226;77;22569;-59
2021/11/13 09:06:08;;;;;;;22.27;12.63;;;;;;;8.48;61.26;101594.17;1807843;77;21703;-59
2021/11/13 09:08:37;;;;;;;21.33;13.50;;;;;;;8.57;61.17;101587.59;1782137;78;21019;-60
2021/11/13 09:13:50;;;;;;;21.93;11.90;;;;;;;8.78;60.72;101579.06;1865844;74;22172;-58
2021/11/13 09:16:17;;;;;;;23.83;13.58;;;;;;;8.87;60.35;101585.95;1841765;75;21005;-57
2021/11/13 09:18:46;;;;;;;20.30;13.25;;;;;;;8.93;60.12;101586.11;1805853;77;20962;-59
2021/11/13 09:21:13;;;;;;;21.33;13.03;;;;;;;8.94;59.85;101585.16;1800713;77;21050;-59
2021/11/13 09:23:40;;;;;;;20.15;12.95;;;;;;;8.91;59.75;101585.36;1770515;78;21038;-61
2021/11/13 09:26:07;;;;;;;25.92;14.58;;;;;;;8.88;60.07;101585.52;1780921;78;21089;-59
2021/11/13 09:28:35;;;;;;;23.27;14.43;;;;;;;8.90;60.12;101587.59;1789998;78;21120;-62
2021/11/13 09:31:01;;;;;;;22.98;13.65;;;;;;;8.94;60.00;101587.79;1791279;78;23289;-62
2021/11/13 09:33:29;;;;;;;23.85;13.88;;;;;;;8.97;59.78;101591.56;1761080;78;21088;-63
2021/11/13 09:35:55;;;;;;;23.45;13.58;;;;;;;8.97;59.81;101584.17;1791916;78;21052;-63
2021/11/13 09:38:28;;;;;;;22.98;13.10;;;;;;;8.99;59.71;101583.61;1787415;78;21269;-64
2021/11/13 09:40:58;;;;;;;26.02;14.25;;;;;;;9.02;59.58;101586.08;1792789;78;21074;-64
2021/11/13 09:43:25;;;;;;;22.48;14.53;;;;;;;9.12;59.35;101578.08;1793835;78;22166;-64
2021/11/13 09:45:55;;;;;;;22.73;11.90;;;;;;;9.26;58.85;101579.48;1789005;78;21567;-63
2021/11/13 09:48:21;;;;;;;20.68;11.97;;;;;;;9.36;58.55;101576.34;1786065;78;21105;-62
2021/11/13 09:50:50;;;;;;;23.87;12.07;;;;;;;9.37;58.20;101576.25;1785599;78;21085;-62
2021/11/13 09:53:26;;;;;;;25.05;13.50;;;;;;;9.35;58.38;101574.19;1789049;78;21227;-62
2021/11/13 09:55:53;;;;;;;19.45;11.40;;;;;;;9.38;58.36;101566.14;1787455;78;21790;-69
2021/11/13 09:58:21;;;;;;;19.40;12.20;;;;;;;9.47;58.11;101570.86;1787455;78;21595;-68
2021/11/13 10:00:47;;;;;;;20.68;11.25;;;;;;;9.59;57.85;101567.16;1799686;78;21046;-65
2021/11/13 10:03:21;;;;;;;18.82;12.15;;;;;;;9.69;57.40;101565.70;1785323;78;22290;-68
2021/11/13 10:05:54;;;;;;;17.10;10.95;;;;;;;9.78;57.16;101563.84;1783101;78;21113;-69
2021/11/13 10:08:23;;;;;;;19.82;11.20;;;;;;;9.83;56.88;101568.39;1809968;77;21064;-69
2021/11/13 10:11:00;;;;;;;18.40;10.50;;;;;;;9.91;56.63;101561.83;1783280;78;21667;-69
2021/11/13 10:13:37;;;;;;;20.23;10.65;;;;;;;9.98;56.31;101568.42;1774566;79;21117;-69
2021/11/13 10:16:10;;;;;;;19.80;11.45;;;;;;;10.07;56.01;101566.58;1809653;77;20998;-69
2021/11/13 10:18:54;;;;;;;18.65;10.88;;;;;;;10.17;55.87;101565.54;1778915;78;21489;-68
2021/11/13 10:21:26;;;;;;;20.12;10.78;;;;;;;10.25;55.34;101569.04;1802012;77;21066;-68
2021/11/13 10:24:04;;;;;;;17.60;10.60;;;;;;;10.20;55.12;101567.98;1804755;77;21609;-69
2021/11/13 10:26:39;;;;;;;16.07;10.15;;;;;;;10.15;55.10;101569.57;1811279;77;21068;-68
2021/11/13 10:29:22;;;;;;;17.23;9.93;;;;;;;10.08;55.14;101578.77;1768599;78;21070;-68
2021/11/13 10:31:53;;;;;;;17.77;9.00;;;;;;;10.07;55.26;101571.84;1786519;78;21091;-68
2021/11/13 10:34:32;;;;;;;17.37;9.90;;;;;;;10.08;55.26;101566.94;1786346;78;21102;-70
2021/11/13 10:37:18;;;;;;;16.55;9.13;;;;;;;10.13;55.08;101564.88;1767290;79;21121;-70
2021/11/13 10:39:45;;;;;;;17.00;10.30;;;;;;;10.13;54.73;101562.25;1771057;79;21022;-70
2021/11/13 10:42:17;;;;;;;15.60;9.88;;;;;;;10.09;54.76;101564.70;1778903;78;21055;-69
2021/11/13 10:45:00;;;;;;;13.98;8.93;;;;;;;10.10;54.84;101563.73;1757551;79;21105;-70
2021/11/13 10:47:38;;;;;;;19.15;9.98;;;;;;;10.11;54.71;101560.19;1780820;78;22269;-70
2021/11/13 10:50:25;;;;;;;15.93;10.40;;;;;;;10.12;54.63;101558.39;1811443;77;21077;-69
2021/11/13 10:53:08;;;;;;;16.82;8.80;;;;;;;10.12;54.49;101555.31;1807883;77;21113;-69
2021/11/13 10:56:08;;;;;;;15.43;9.90;;;;;;;10.15;54.44;101566.10;1796156;78;21047;-68
2021/11/13 10:58:38;;;;;;;14.98;8.93;;;;;;;10.20;54.19;101569.30;1774116;78;21580;-68
2021/11/13 11:01:25;;;;;;;16.20;10.18;;;;;;;10.22;54.39;101568.73;1777829;77;21666;-68
2021/11/13 11:03:53;;;;;;;15.80;8.73;;;;;;;10.27;54.54;101571.10;1784811;78;21097;-58
2021/11/13 11:06:38;;;;;;;18.62;9.58;;;;;;;10.33;54.30;101570.78;1812131;77;21525;-58
2021/11/13 11:09:17;;;;;;;16.23;9.03;;;;;;;10.39;54.04;101565.99;1802575;78;20954;-61
2021/11/13 11:11:44;;;;;;;22.27;10.98;;;;;;;10.46;53.84;101565.16;1803445;77;21090;-58
2021/11/13 11:14:17;;;;;;;12.98;8.53;;;;;;;10.48;53.70;101567.22;1813732;77;21155;-58
2021/11/13 11:16:51;;;;;;;21.02;10.28;;;;;;;10.48;53.41;101568.53;1813431;78;21044;-59
2021/11/13 11:19:26;;;;;;;15.25;9.53;;;;;;;10.43;53.72;101573.23;1812865;77;21584;-58
2021/11/13 11:22:14;;;;;;;17.98;9.30;;;;;;;10.47;53.67;101576.52;1815457;77;20968;-59
2021/11/13 11:24:46;;;;;;;17.20;9.20;;;;;;;10.56;53.74;101576.81;1799872;77;21151;-58
2021/11/13 11:27:25;;;;;;;16.48;9.05;;;;;;;10.94;52.96;101568.79;1816550;77;21023;-58
2021/11/13 11:30:04;;;;;;;13.85;8.75;;;;;;;11.11;52.50;101572.99;1790682;77;21084;-58
2021/11/13 11:32:35;;;;;;;15.80;8.88;;;;;;;11.14;52.13;101572.80;1794025;77;21069;-58
2021/11/13 11:35:09;;;;;;;17.95;9.65;;;;;;;11.67;51.41;101575.09;1795677;78;21384;-58
2021/11/13 11:37:39;;;;;;;16.87;10.53;;;;;;;11.76;51.13;101576.75;1815858;78;21113;-59
2021/11/13 11:40:14;;;;;;;17.67;9.28;;;;;;;11.73;50.91;101575.63;1789834;78;21101;-58